sensor_id;sensor_type;location;lat;lon;timestamp;pressure;altitude;pressure_sealevel;temperature;humidity
55044;BME280;54902;50.420;18.854;2022-12-07T00:00:23;100853.48;;;2.15;83.99
55044;BME280;54902;50.420;18.854;2022-12-07T00:00:55;100848.10;;;2.15;83.99
55044;BME280;54902;50.420;18.854;2022-12-07T00:01:31;100856.26;;;2.13;83.99
55044;BME280;54902;50.420;18.854;2022-12-07T00:02:03;100857.94;;;2.16;83.98
55044;BME280;54902;50.420;18.854;2022-12-07T00:02:33;100847.23;;;2.14;83.98
55044;BME280;54902;50.420;18.854;2022-12-07T00:03:04;100855.32;;;2.14;83.98
55044;BME280;54902;50.420;18.854;2022-12-07T00:03:36;100858.02;;;2.14;84.00
55044;BME280;54902;50.420;18.854;2022-12-07T00:04:11;100861.56;;;2.15;84.00
55044;BME280;54902;50.420;18.854;2022-12-07T00:04:42;100851.73;;;2.14;83.99
55044;BME280;54902;50.420;18.854;2022-12-07T00:05:13;100852.63;;;2.14;84.01
55044;BME280;54902;50.420;18.854;2022-12-07T00:05:44;100854.42;;;2.14;83.99
55044;BME280;54902;50.420;18.854;2022-12-07T00:06:16;100842.79;;;2.13;83.99
55044;BME280;54902;50.420;18.854;2022-12-07T00:06:51;100849.04;;;2.14;84.00
55044;BME280;54902;50.420;18.854;2022-12-07T00:07:23;100848.17;;;2.13;84.00
55044;BME280;54902;50.420;18.854;2022-12-07T00:07:54;100847.23;;;2.14;84.00
55044;BME280;54902;50.420;18.854;2022-12-07T00:08:25;100849.04;;;2.14;84.00
55044;BME280;54902;50.420;18.854;2022-12-07T00:08:56;100841.84;;;2.14;84.01
55044;BME280;54902;50.420;18.854;2022-12-07T00:09:27;100845.48;;;2.13;83.99
55044;BME280;54902;50.420;18.854;2022-12-07T00:09:58;100849.93;;;2.14;84.00
55044;BME280;54902;50.420;18.854;2022-12-07T00:10:29;100849.93;;;2.14;84.01
55044;BME280;54902;50.420;18.854;2022-12-07T00:11:02;100851.73;;;2.14;84.01
55044;BME280;54902;50.420;18.854;2022-12-07T00:11:33;100841.84;;;2.14;84.01
55044;BME280;54902;50.420;18.854;2022-12-07T00:12:05;100849.04;;;2.14;84.01
55044;BME280;54902;50.420;18.854;2022-12-07T00:12:36;100853.48;;;2.15;84.01
55044;BME280;54902;50.420;18.854;2022-12-07T00:13:07;100848.10;;;2.15;84.01
55044;BME280;54902;50.420;18.854;2022-12-07T00:13:38;100847.23;;;2.14;84.02
55044;BME280;54902;50.420;18.854;2022-12-07T00:14:13;100847.23;;;2.14;84.02
55044;BME280;54902;50.420;18.854;2022-12-07T00:14:44;100849.93;;;2.14;84.03
55044;BME280;54902;50.420;18.854;2022-12-07T00:15:15;100849.84;;;2.16;84.04
55044;BME280;54902;50.420;18.854;2022-12-07T00:15:46;100848.17;;;2.13;84.02
55044;BME280;54902;50.420;18.854;2022-12-07T00:16:19;100852.63;;;2.14;84.01
55044;BME280;54902;50.420;18.854;2022-12-07T00:16:51;100858.87;;;2.15;84.03
55044;BME280;54902;50.420;18.854;2022-12-07T00:17:22;100852.63;;;2.14;84.02
55044;BME280;54902;50.420;18.854;2022-12-07T00:17:53;100846.27;;;2.15;84.02
55044;BME280;54902;50.420;18.854;2022-12-07T00:18:24;100848.10;;;2.15;84.03
55044;BME280;54902;50.420;18.854;2022-12-07T00:18:56;100848.95;;;2.15;84.04
55044;BME280;54902;50.420;18.854;2022-12-07T00:19:27;100848.95;;;2.15;84.02
55044;BME280;54902;50.420;18.854;2022-12-07T00:19:58;100848.95;;;2.15;84.02
55044;BME280;54902;50.420;18.854;2022-12-07T00:20:29;100850.71;;;2.16;84.03
55044;BME280;54902;50.420;18.854;2022-12-07T00:21:03;100843.57;;;2.15;84.02
55044;BME280;54902;50.420;18.854;2022-12-07T00:21:35;100842.70;;;2.15;83.96
55044;BME280;54902;50.420;18.854;2022-12-07T00:22:06;100854.35;;;2.15;84.04
55044;BME280;54902;50.420;18.854;2022-12-07T00:22:37;100839.94;;;2.16;84.03
55044;BME280;54902;50.420;18.854;2022-12-07T00:23:08;100846.27;;;2.15;84.04
55044;BME280;54902;50.420;18.854;2022-12-07T00:23:40;100847.16;;;2.16;84.05
55044;BME280;54902;50.420;18.854;2022-12-07T00:24:12;100840.88;;;2.15;84.04
55044;BME280;54902;50.420;18.854;2022-12-07T00:24:43;100847.08;;;2.17;84.03
55044;BME280;54902;50.420;18.854;2022-12-07T00:25:14;100841.84;;;2.14;84.03
55044;BME280;54902;50.420;18.854;2022-12-07T00:25:45;100844.46;;;2.16;84.04
55044;BME280;54902;50.420;18.854;2022-12-07T00:26:25;100841.77;;;2.16;84.03
55044;BME280;54902;50.420;18.854;2022-12-07T00:26:56;100839.94;;;2.16;84.03
55044;BME280;54902;50.420;18.854;2022-12-07T00:27:27;100848.95;;;2.15;84.04
55044;BME280;54902;50.420;18.854;2022-12-07T00:27:58;100846.27;;;2.15;84.04
55044;BME280;54902;50.420;18.854;2022-12-07T00:28:29;100846.27;;;2.15;84.03
55044;BME280;54902;50.420;18.854;2022-12-07T00:29:06;100846.27;;;2.15;84.03
55044;BME280;54902;50.420;18.854;2022-12-07T00:29:37;100848.95;;;2.15;84.03
55044;BME280;54902;50.420;18.854;2022-12-07T00:30:09;100842.63;;;2.16;84.04
55044;BME280;54902;50.420;18.854;2022-12-07T00:30:40;100840.88;;;2.15;84.05
55044;BME280;54902;50.420;18.854;2022-12-07T00:31:12;100845.32;;;2.16;84.05
55044;BME280;54902;50.420;18.854;2022-12-07T00:31:43;100846.27;;;2.15;84.04
55044;BME280;54902;50.420;18.854;2022-12-07T00:32:14;100839.94;;;2.16;84.05
55044;BME280;54902;50.420;18.854;2022-12-07T00:32:45;100848.01;;;2.16;84.01
55044;BME280;54902;50.420;18.854;2022-12-07T00:33:16;100843.57;;;2.15;84.04
55044;BME280;54902;50.420;18.854;2022-12-07T00:33:47;100847.16;;;2.16;84.05
55044;BME280;54902;50.420;18.854;2022-12-07T00:34:20;100849.84;;;2.16;84.03
55044;BME280;54902;50.420;18.854;2022-12-07T00:34:51;100840.88;;;2.15;84.04
55044;BME280;54902;50.420;18.854;2022-12-07T00:35:22;100843.57;;;2.15;84.05
55044;BME280;54902;50.420;18.854;2022-12-07T00:36:00;100843.57;;;2.15;84.05
55044;BME280;54902;50.420;18.854;2022-12-07T00:36:31;100843.57;;;2.15;84.05
55044;BME280;54902;50.420;18.854;2022-12-07T00:37:02;100842.70;;;2.15;84.04
55044;BME280;54902;50.420;18.854;2022-12-07T00:37:33;100845.32;;;2.16;84.04
55044;BME280;54902;50.420;18.854;2022-12-07T00:38:04;100840.88;;;2.15;84.04
55044;BME280;54902;50.420;18.854;2022-12-07T00:38:36;100839.94;;;2.16;84.06
55044;BME280;54902;50.420;18.854;2022-12-07T00:39:08;100843.57;;;2.15;84.06
55044;BME280;54902;50.420;18.854;2022-12-07T00:39:39;100839.08;;;2.16;84.05
55044;BME280;54902;50.420;18.854;2022-12-07T00:40:10;100840.88;;;2.15;84.04
55044;BME280;54902;50.420;18.854;2022-12-07T00:40:41;100838.18;;;2.15;84.05
55044;BME280;54902;50.420;18.854;2022-12-07T00:41:18;100832.80;;;2.15;84.05
55044;BME280;54902;50.420;18.854;2022-12-07T00:41:49;100838.18;;;2.15;84.06
55044;BME280;54902;50.420;18.854;2022-12-07T00:42:20;100839.94;;;2.16;84.05
55044;BME280;54902;50.420;18.854;2022-12-07T00:42:51;100844.46;;;2.16;84.05
55044;BME280;54902;50.420;18.854;2022-12-07T00:43:22;100839.94;;;2.16;84.05
55044;BME280;54902;50.420;18.854;2022-12-07T00:43:53;100819.84;;;2.05;84.06
55044;BME280;54902;50.420;18.854;2022-12-07T00:44:24;100836.38;;;2.16;84.07
55044;BME280;54902;50.420;18.854;2022-12-07T00:44:55;100832.80;;;2.15;84.06
55044;BME280;54902;50.420;18.854;2022-12-07T00:45:26;100828.30;;;2.16;84.08
55044;BME280;54902;50.420;18.854;2022-12-07T00:45:57;100823.77;;;2.16;84.07
55044;BME280;54902;50.420;18.854;2022-12-07T00:46:29;100833.69;;;2.16;84.07
55044;BME280;54902;50.420;18.854;2022-12-07T00:47:00;100841.69;;;2.17;84.08
55044;BME280;54902;50.420;18.854;2022-12-07T00:47:31;100837.24;;;2.16;84.09
55044;BME280;54902;50.420;18.854;2022-12-07T00:48:02;100824.66;;;2.17;84.09
55044;BME280;54902;50.420;18.854;2022-12-07T00:48:34;100825.60;;;2.16;84.08
55044;BME280;54902;50.420;18.854;2022-12-07T00:49:05;100823.77;;;2.16;84.08
55044;BME280;54902;50.420;18.854;2022-12-07T00:49:36;100823.77;;;2.16;84.07
55044;BME280;54902;50.420;18.854;2022-12-07T00:50:07;100825.52;;;2.17;84.08
55044;BME280;54902;50.420;18.854;2022-12-07T00:50:38;100829.16;;;2.16;84.08
55044;BME280;54902;50.420;18.854;2022-12-07T00:51:14;100824.66;;;2.17;84.10
55044;BME280;54902;50.420;18.854;2022-12-07T00:51:48;100825.52;;;2.17;84.09
55044;BME280;54902;50.420;18.854;2022-12-07T00:52:18;100819.27;;;2.17;84.09
55044;BME280;54902;50.420;18.854;2022-12-07T00:52:49;100822.98;;;2.14;84.08
55044;BME280;54902;50.420;18.854;2022-12-07T00:53:21;100825.52;;;2.17;84.08
55044;BME280;54902;50.420;18.854;2022-12-07T00:53:52;100828.22;;;2.17;84.08
55044;BME280;54902;50.420;18.854;2022-12-07T00:54:23;100824.66;;;2.17;84.08
55044;BME280;54902;50.420;18.854;2022-12-07T00:54:54;100828.22;;;2.17;84.08
55044;BME280;54902;50.420;18.854;2022-12-07T00:55:25;100822.83;;;2.17;84.09
55044;BME280;54902;50.420;18.854;2022-12-07T00:55:56;100837.15;;;2.18;84.08
55044;BME280;54902;50.420;18.854;2022-12-07T00:56:28;100829.08;;;2.18;84.08
55044;BME280;54902;50.420;18.854;2022-12-07T00:56:59;100828.22;;;2.17;84.08
55044;BME280;54902;50.420;18.854;2022-12-07T00:57:30;100825.52;;;2.17;84.09
55044;BME280;54902;50.420;18.854;2022-12-07T00:58:02;100826.38;;;2.18;84.08
55044;BME280;54902;50.420;18.854;2022-12-07T00:58:33;100825.52;;;2.17;84.08
55044;BME280;54902;50.420;18.854;2022-12-07T00:59:04;100820.13;;;2.17;84.08
55044;BME280;54902;50.420;18.854;2022-12-07T00:59:35;100836.30;;;2.17;84.10
55044;BME280;54902;50.420;18.854;2022-12-07T01:00:07;100832.66;;;2.18;84.11
55044;BME280;54902;50.420;18.854;2022-12-07T01:00:40;100827.27;;;2.18;84.09
55044;BME280;54902;50.420;18.854;2022-12-07T01:01:11;100825.52;;;2.17;84.08
55044;BME280;54902;50.420;18.854;2022-12-07T01:01:42;100828.22;;;2.17;84.09
55044;BME280;54902;50.420;18.854;2022-12-07T01:02:13;100831.77;;;2.18;84.08
55044;BME280;54902;50.420;18.854;2022-12-07T01:02:44;100825.52;;;2.17;84.08
55044;BME280;54902;50.420;18.854;2022-12-07T01:03:16;100825.52;;;2.17;84.10
55044;BME280;54902;50.420;18.854;2022-12-07T01:03:47;100836.22;;;2.19;84.09
55044;BME280;54902;50.420;18.854;2022-12-07T01:04:18;100823.77;;;2.16;84.09
55044;BME280;54902;50.420;18.854;2022-12-07T01:04:49;100835.45;;;2.17;84.08
55044;BME280;54902;50.420;18.854;2022-12-07T01:05:20;100834.54;;;2.16;84.11
55044;BME280;54902;50.420;18.854;2022-12-07T01:05:53;100827.27;;;2.18;84.10
55044;BME280;54902;50.420;18.854;2022-12-07T01:06:25;100825.52;;;2.17;84.10
55044;BME280;54902;50.420;18.854;2022-12-07T01:06:56;100836.30;;;2.17;84.10
55044;BME280;54902;50.420;18.854;2022-12-07T01:07:27;100822.83;;;2.17;84.09
55044;BME280;54902;50.420;18.854;2022-12-07T01:07:58;100821.07;;;2.16;84.09
55044;BME280;54902;50.420;18.854;2022-12-07T01:08:29;100825.52;;;2.17;84.09
55044;BME280;54902;50.420;18.854;2022-12-07T01:09:00;100823.69;;;2.18;84.11
55044;BME280;54902;50.420;18.854;2022-12-07T01:09:31;100820.13;;;2.17;84.10
55044;BME280;54902;50.420;18.854;2022-12-07T01:10:03;100822.83;;;2.17;84.10
55044;BME280;54902;50.420;18.854;2022-12-07T01:10:34;100821.00;;;2.18;84.12
55044;BME280;54902;50.420;18.854;2022-12-07T01:11:07;100821.89;;;2.18;84.11
55044;BME280;54902;50.420;18.854;2022-12-07T01:11:40;100824.59;;;2.18;84.11
55044;BME280;54902;50.420;18.854;2022-12-07T01:12:11;100822.75;;;2.19;84.14
55044;BME280;54902;50.420;18.854;2022-12-07T01:12:42;100816.50;;;2.18;84.12
55044;BME280;54902;50.420;18.854;2022-12-07T01:13:13;100821.89;;;2.18;84.12
55044;BME280;54902;50.420;18.854;2022-12-07T01:13:44;100824.59;;;2.18;84.12
55044;BME280;54902;50.420;18.854;2022-12-07T01:14:15;100816.50;;;2.18;84.12
55044;BME280;54902;50.420;18.854;2022-12-07T01:14:46;100820.91;;;2.19;84.13
55044;BME280;54902;50.420;18.854;2022-12-07T01:15:17;100811.12;;;2.18;84.12
55044;BME280;54902;50.420;18.854;2022-12-07T01:15:48;100811.12;;;2.18;84.11
55044;BME280;54902;50.420;18.854;2022-12-07T01:16:24;100820.91;;;2.19;84.13
55044;BME280;54902;50.420;18.854;2022-12-07T01:16:56;100813.80;;;2.18;84.11
55044;BME280;54902;50.420;18.854;2022-12-07T01:17:28;100817.36;;;2.19;84.11
55044;BME280;54902;50.420;18.854;2022-12-07T01:17:59;100820.91;;;2.19;84.12
55044;BME280;54902;50.420;18.854;2022-12-07T01:18:32;100822.75;;;2.19;84.12
55044;BME280;54902;50.420;18.854;2022-12-07T01:19:03;100823.61;;;2.19;84.12
55044;BME280;54902;50.420;18.854;2022-12-07T01:19:35;100812.83;;;2.19;84.13
55044;BME280;54902;50.420;18.854;2022-12-07T01:20:07;100812.99;;;2.16;84.13
55044;BME280;54902;50.420;18.854;2022-12-07T01:20:38;100817.36;;;2.19;84.12
55044;BME280;54902;50.420;18.854;2022-12-07T01:21:12;100814.75;;;2.17;84.13
55044;BME280;54902;50.420;18.854;2022-12-07T01:21:43;100820.91;;;2.19;84.12
55044;BME280;54902;50.420;18.854;2022-12-07T01:22:14;100812.83;;;2.19;84.14
55044;BME280;54902;50.420;18.854;2022-12-07T01:22:45;100812.83;;;2.19;84.13
55044;BME280;54902;50.420;18.854;2022-12-07T01:23:16;100812.83;;;2.19;84.14
55044;BME280;54902;50.420;18.854;2022-12-07T01:23:47;100819.12;;;2.20;84.13
55044;BME280;54902;50.420;18.854;2022-12-07T01:24:18;100814.58;;;2.20;84.13
55044;BME280;54902;50.420;18.854;2022-12-07T01:24:49;100819.97;;;2.20;84.13
55044;BME280;54902;50.420;18.854;2022-12-07T01:25:20;100815.48;;;2.21;84.13
55044;BME280;54902;50.420;18.854;2022-12-07T01:25:58;100824.51;;;2.20;84.14
55044;BME280;54902;50.420;18.854;2022-12-07T01:26:29;100807.44;;;2.19;84.14
55044;BME280;54902;50.420;18.854;2022-12-07T01:27:00;100819.12;;;2.20;84.16
55044;BME280;54902;50.420;18.854;2022-12-07T01:27:33;100814.58;;;2.20;84.13
55044;BME280;54902;50.420;18.854;2022-12-07T01:28:04;100810.22;;;2.18;84.15
55044;BME280;54902;50.420;18.854;2022-12-07T01:28:35;100807.60;;;2.16;84.02
55044;BME280;54902;50.420;18.854;2022-12-07T01:29:06;100817.28;;;2.20;84.12
55044;BME280;54902;50.420;18.854;2022-12-07T01:29:37;100813.73;;;2.20;84.13
55044;BME280;54902;50.420;18.854;2022-12-07T01:30:10;100817.28;;;2.20;84.12
55044;BME280;54902;50.420;18.854;2022-12-07T01:30:41;100811.89;;;2.20;84.14
55044;BME280;54902;50.420;18.854;2022-12-07T01:31:14;100819.97;;;2.20;84.13
55044;BME280;54902;50.420;18.854;2022-12-07T01:31:48;100816.34;;;2.21;84.15
55044;BME280;54902;50.420;18.854;2022-12-07T01:32:19;100810.09;;;2.21;84.14
55044;BME280;54902;50.420;18.854;2022-12-07T01:32:51;100815.48;;;2.21;84.13
55044;BME280;54902;50.420;18.854;2022-12-07T01:33:22;100808.26;;;2.21;84.14
55044;BME280;54902;50.420;18.854;2022-12-07T01:33:55;100816.34;;;2.21;84.13
55044;BME280;54902;50.420;18.854;2022-12-07T01:34:26;100816.34;;;2.21;84.13
55044;BME280;54902;50.420;18.854;2022-12-07T01:34:57;100811.80;;;2.22;84.14
55044;BME280;54902;50.420;18.854;2022-12-07T01:35:28;100813.65;;;2.21;84.13
55044;BME280;54902;50.420;18.854;2022-12-07T01:36:04;100812.70;;;2.22;84.13
55044;BME280;54902;50.420;18.854;2022-12-07T01:36:36;100809.11;;;2.22;84.14
55044;BME280;54902;50.420;18.854;2022-12-07T01:37:07;100817.20;;;2.22;84.14
55044;BME280;54902;50.420;18.854;2022-12-07T01:37:39;100816.34;;;2.21;84.15
55044;BME280;54902;50.420;18.854;2022-12-07T01:38:10;100811.80;;;2.22;84.13
55044;BME280;54902;50.420;18.854;2022-12-07T01:38:41;100801.92;;;2.22;84.13
55044;BME280;54902;50.420;18.854;2022-12-07T01:39:12;100807.31;;;2.22;84.13
55044;BME280;54902;50.420;18.854;2022-12-07T01:39:43;100806.34;;;2.23;84.15
55044;BME280;54902;50.420;18.854;2022-12-07T01:40:14;100811.80;;;2.22;84.14
55044;BME280;54902;50.420;18.854;2022-12-07T01:40:45;100812.70;;;2.22;84.15
55044;BME280;54902;50.420;18.854;2022-12-07T01:41:22;100812.70;;;2.22;84.15
55044;BME280;54902;50.420;18.854;2022-12-07T01:41:54;100817.12;;;2.23;84.16
55044;BME280;54902;50.420;18.854;2022-12-07T01:42:25;100813.57;;;2.23;84.16
55044;BME280;54902;50.420;18.854;2022-12-07T01:42:56;100810.01;;;2.22;84.13
55044;BME280;54902;50.420;18.854;2022-12-07T01:43:29;100807.31;;;2.22;84.15
55044;BME280;54902;50.420;18.854;2022-12-07T01:46:09;100818.95;;;2.23;84.15
55044;BME280;54902;50.420;18.854;2022-12-07T01:46:43;100810.87;;;2.23;84.16
55044;BME280;54902;50.420;18.854;2022-12-07T01:47:15;100810.01;;;2.22;84.13
55044;BME280;54902;50.420;18.854;2022-12-07T01:47:52;100815.41;;;2.22;84.13
55044;BME280;54902;50.420;18.854;2022-12-07T01:48:27;100818.09;;;2.22;84.15
55044;BME280;54902;50.420;18.854;2022-12-07T01:49:00;100810.87;;;2.23;84.15
55044;BME280;54902;50.420;18.854;2022-12-07T01:49:38;100812.70;;;2.22;84.15
55044;BME280;54902;50.420;18.854;2022-12-07T01:50:09;100809.11;;;2.22;84.15
55044;BME280;54902;50.420;18.854;2022-12-07T01:50:42;100807.31;;;2.22;84.13
55044;BME280;54902;50.420;18.854;2022-12-07T01:51:14;100807.31;;;2.22;84.15
55044;BME280;54902;50.420;18.854;2022-12-07T01:51:47;100819.81;;;2.23;84.16
55044;BME280;54902;50.420;18.854;2022-12-07T01:52:24;100816.26;;;2.23;84.15
55044;BME280;54902;50.420;18.854;2022-12-07T01:53:00;100813.57;;;2.23;84.15
55044;BME280;54902;50.420;18.854;2022-12-07T01:53:34;100818.09;;;2.22;84.13
55044;BME280;54902;50.420;18.854;2022-12-07T01:54:07;100808.18;;;2.23;84.13
55044;BME280;54902;50.420;18.854;2022-12-07T01:54:39;100814.42;;;2.23;84.15
55044;BME280;54902;50.420;18.854;2022-12-07T01:55:12;100807.31;;;2.22;84.15
55044;BME280;54902;50.420;18.854;2022-12-07T01:55:47;100813.57;;;2.23;84.13
55044;BME280;54902;50.420;18.854;2022-12-07T01:56:24;100809.03;;;2.23;84.15
55044;BME280;54902;50.420;18.854;2022-12-07T01:56:58;100814.42;;;2.23;84.13
55044;BME280;54902;50.420;18.854;2022-12-07T01:57:32;100819.81;;;2.23;84.16
55044;BME280;54902;50.420;18.854;2022-12-07T01:58:04;100810.87;;;2.23;84.13
55044;BME280;54902;50.420;18.854;2022-12-07T01:58:36;100810.01;;;2.22;84.13
55044;BME280;54902;50.420;18.854;2022-12-07T01:59:08;100819.81;;;2.23;84.15
55044;BME280;54902;50.420;18.854;2022-12-07T01:59:39;100804.63;;;2.22;84.13
55044;BME280;54902;50.420;18.854;2022-12-07T02:00:11;100815.41;;;2.22;84.15
55044;BME280;54902;50.420;18.854;2022-12-07T02:00:42;100809.03;;;2.23;84.16
55044;BME280;54902;50.420;18.854;2022-12-07T02:01:13;100805.56;;;2.21;84.14
55044;BME280;54902;50.420;18.854;2022-12-07T02:01:44;100807.31;;;2.22;84.15
55044;BME280;54902;50.420;18.854;2022-12-07T02:02:23;100812.70;;;2.22;84.16
55044;BME280;54902;50.420;18.854;2022-12-07T02:03:07;100808.18;;;2.23;84.16
55044;BME280;54902;50.420;18.854;2022-12-07T02:03:41;100816.26;;;2.23;84.15
55044;BME280;54902;50.420;18.854;2022-12-07T02:04:13;100807.31;;;2.22;84.16
55044;BME280;54902;50.420;18.854;2022-12-07T02:04:45;100812.70;;;2.22;84.13
55044;BME280;54902;50.420;18.854;2022-12-07T02:05:18;100810.95;;;2.21;84.13
55044;BME280;54902;50.420;18.854;2022-12-07T02:05:51;100810.95;;;2.21;84.13
55044;BME280;54902;50.420;18.854;2022-12-07T02:06:24;100806.42;;;2.22;84.14
55044;BME280;54902;50.420;18.854;2022-12-07T02:06:57;100809.11;;;2.22;84.14
55044;BME280;54902;50.420;18.854;2022-12-07T02:07:29;100812.70;;;2.22;84.16
55044;BME280;54902;50.420;18.854;2022-12-07T02:08:02;100805.56;;;2.21;84.13
55044;BME280;54902;50.420;18.854;2022-12-07T02:08:34;100818.09;;;2.22;84.25
55044;BME280;54902;50.420;18.854;2022-12-07T02:09:05;100810.95;;;2.21;84.13
55044;BME280;54902;50.420;18.854;2022-12-07T02:09:36;100805.56;;;2.21;84.13
55044;BME280;54902;50.420;18.854;2022-12-07T02:10:20;100810.09;;;2.21;84.14
55044;BME280;54902;50.420;18.854;2022-12-07T02:10:51;100810.09;;;2.21;84.13
55044;BME280;54902;50.420;18.854;2022-12-07T02:11:22;100810.95;;;2.21;84.14
55044;BME280;54902;50.420;18.854;2022-12-07T02:11:55;100805.56;;;2.21;84.14
55044;BME280;54902;50.420;18.854;2022-12-07T02:12:26;100807.40;;;2.21;84.15
55044;BME280;54902;50.420;18.854;2022-12-07T02:13:02;100805.56;;;2.21;84.15
55044;BME280;54902;50.420;18.854;2022-12-07T02:13:37;100804.63;;;2.22;84.16
55044;BME280;54902;50.420;18.854;2022-12-07T02:14:08;100801.11;;;2.20;84.14
55044;BME280;54902;50.420;18.854;2022-12-07T02:14:39;100801.11;;;2.20;84.16
55044;BME280;54902;50.420;18.854;2022-12-07T02:15:11;100801.11;;;2.20;84.16
55044;BME280;54902;50.420;18.854;2022-12-07T02:16:36;100805.56;;;2.21;84.15
55044;BME280;54902;50.420;18.854;2022-12-07T02:17:14;100796.62;;;2.21;84.14
55044;BME280;54902;50.420;18.854;2022-12-07T02:18:06;100804.70;;;2.21;84.15
55044;BME280;54902;50.420;18.854;2022-12-07T02:21:36;100802.02;;;2.21;84.16
55044;BME280;54902;50.420;18.854;2022-12-07T02:27:21;100806.50;;;2.20;84.14
55044;BME280;54902;50.420;18.854;2022-12-07T02:29:22;100795.80;;;2.19;84.15
55044;BME280;54902;50.420;18.854;2022-12-07T02:30:01;100803.03;;;2.18;84.14
55044;BME280;54902;50.420;18.854;2022-12-07T02:30:35;100801.19;;;2.19;84.17
55044;BME280;54902;50.420;18.854;2022-12-07T02:31:14;100794.95;;;2.18;84.15
55044;BME280;54902;50.420;18.854;2022-12-07T02:33:26;100795.80;;;2.19;84.18
55044;BME280;54902;50.420;18.854;2022-12-07T02:34:05;100800.34;;;2.18;84.15
55044;BME280;54902;50.420;18.854;2022-12-07T02:34:49;100800.34;;;2.18;84.17
55044;BME280;54902;50.420;18.854;2022-12-07T02:35:32;100797.64;;;2.18;84.17
55044;BME280;54902;50.420;18.854;2022-12-07T02:36:11;100800.34;;;2.18;84.19
55044;BME280;54902;50.420;18.854;2022-12-07T02:36:54;100799.44;;;2.18;84.19
55044;BME280;54902;50.420;18.854;2022-12-07T02:38:16;100801.27;;;2.17;84.17
55044;BME280;54902;50.420;18.854;2022-12-07T02:39:39;100799.44;;;2.18;84.26
55044;BME280;54902;50.420;18.854;2022-12-07T02:39:57;100794.95;;;2.18;84.17
55044;BME280;54902;50.420;18.854;2022-12-07T02:40:22;100794.05;;;2.18;84.18
55044;BME280;54902;50.420;18.854;2022-12-07T02:41:02;100800.34;;;2.18;84.18
55044;BME280;54902;50.420;18.854;2022-12-07T02:41:39;100799.44;;;2.18;84.19
55044;BME280;54902;50.420;18.854;2022-12-07T02:42:17;100786.95;;;2.17;84.18
55044;BME280;54902;50.420;18.854;2022-12-07T02:42:55;100798.58;;;2.17;84.18
55044;BME280;54902;50.420;18.854;2022-12-07T02:44:15;100792.34;;;2.17;84.18
55044;BME280;54902;50.420;18.854;2022-12-07T02:44:49;100792.34;;;2.17;84.16
55044;BME280;54902;50.420;18.854;2022-12-07T02:45:22;100790.50;;;2.17;84.17
55044;BME280;54902;50.420;18.854;2022-12-07T02:46:10;100788.66;;;2.18;84.18
55044;BME280;54902;50.420;18.854;2022-12-07T02:46:40;100790.50;;;2.17;84.17
55044;BME280;54902;50.420;18.854;2022-12-07T02:47:15;100794.05;;;2.18;84.19
55044;BME280;54902;50.420;18.854;2022-12-07T02:47:51;100793.19;;;2.17;84.18
55044;BME280;54902;50.420;18.854;2022-12-07T02:48:26;100793.19;;;2.17;84.18
55044;BME280;54902;50.420;18.854;2022-12-07T02:48:58;100788.66;;;2.18;84.17
55044;BME280;54902;50.420;18.854;2022-12-07T02:49:31;100793.97;;;2.19;84.19
55044;BME280;54902;50.420;18.854;2022-12-07T02:50:05;100783.27;;;2.18;84.18
55044;BME280;54902;50.420;18.854;2022-12-07T02:50:37;100793.19;;;2.17;84.19
55044;BME280;54902;50.420;18.854;2022-12-07T02:51:08;100789.55;;;2.18;84.18
55044;BME280;54902;50.420;18.854;2022-12-07T02:51:41;100789.55;;;2.18;84.19
55044;BME280;54902;50.420;18.854;2022-12-07T02:52:13;100783.27;;;2.18;84.19
55044;BME280;54902;50.420;18.854;2022-12-07T02:52:44;100784.16;;;2.18;84.18
55044;BME280;54902;50.420;18.854;2022-12-07T02:53:59;100777.89;;;2.18;84.20
55044;BME280;54902;50.420;18.854;2022-12-07T02:54:30;100781.48;;;2.18;84.19
55044;BME280;54902;50.420;18.854;2022-12-07T02:55:01;100789.55;;;2.18;84.19
55044;BME280;54902;50.420;18.854;2022-12-07T02:55:38;100784.16;;;2.18;84.19
55044;BME280;54902;50.420;18.854;2022-12-07T02:56:21;100781.48;;;2.18;84.20
55044;BME280;54902;50.420;18.854;2022-12-07T02:57:08;100786.87;;;2.18;84.19
55044;BME280;54902;50.420;18.854;2022-12-07T02:59:15;100779.64;;;2.19;84.20
55044;BME280;54902;50.420;18.854;2022-12-07T03:00:34;100784.95;;;2.20;84.20
55044;BME280;54902;50.420;18.854;2022-12-07T03:02:40;100780.50;;;2.19;84.20
55044;BME280;54902;50.420;18.854;2022-12-07T03:03:15;100783.20;;;2.19;84.19
55044;BME280;54902;50.420;18.854;2022-12-07T03:03:49;100780.50;;;2.19;84.20
55044;BME280;54902;50.420;18.854;2022-12-07T03:04:42;100776.94;;;2.19;84.20
55044;BME280;54902;50.420;18.854;2022-12-07T03:05:22;100777.80;;;2.19;84.20
55044;BME280;54902;50.420;18.854;2022-12-07T03:05:59;100779.64;;;2.19;84.21
55044;BME280;54902;50.420;18.854;2022-12-07T03:06:42;100785.89;;;2.19;84.22
55044;BME280;54902;50.420;18.854;2022-12-07T03:08:05;100785.03;;;2.19;84.22
55044;BME280;54902;50.420;18.854;2022-12-07T03:08:46;100785.89;;;2.19;84.22
55044;BME280;54902;50.420;18.854;2022-12-07T03:09:28;100780.66;;;2.16;84.19
55044;BME280;54902;50.420;18.854;2022-12-07T03:10:56;100785.03;;;2.19;84.20
55044;BME280;54902;50.420;18.854;2022-12-07T03:11:41;100783.20;;;2.19;84.19
55044;BME280;54902;50.420;18.854;2022-12-07T03:12:19;100784.16;;;2.18;84.21
55044;BME280;54902;50.420;18.854;2022-12-07T03:13:05;100781.48;;;2.18;84.21
55044;BME280;54902;50.420;18.854;2022-12-07T03:13:43;100785.03;;;2.19;84.21
55044;BME280;54902;50.420;18.854;2022-12-07T03:14:26;100784.16;;;2.18;84.21
55044;BME280;54902;50.420;18.854;2022-12-07T03:15:07;100772.50;;;2.18;84.23
55044;BME280;54902;50.420;18.854;2022-12-07T03:16:38;100778.78;;;2.18;84.22